McElhattan, Pennsylvania
Current Conditions -  °F | °C
As of 5:54 PM on Friday 28 Nov 2014 (Local Time) from KIPT Reporting Station
Clear Clear  
Wind Chill: 23°   Ceiling: Unl
Heat Index: 29°   Visibility: 10mi
Dew Point: 12°   Wind: 6mph
Humidity: 49%   Direction: 270°W
Pressure: 30.22"   Gusts: NA
Location:  41.16°N, 77.36°W
Report Text: KIPT 282254Z 27005KT 10SM CLR M02/M11 A3022 RMK AO2 SLP240 T10171111
Loading
Personal Weather Stations






























Interactive Weather Map New forecast layout! Learn more

10-Day Weather Forecast

Advertisements
Track Severe Weather on mobile